sensor_id;sensor_type;location;lat;lon;timestamp;P1;durP1;ratioP1;P2;durP2;ratioP2
22111;SDS011;11222;50.872;4.312;2023-04-03T00:00:13;9.07;;;7.25;;
22111;SDS011;11222;50.872;4.312;2023-04-03T00:02:39;10.82;;;7.05;;
22111;SDS011;11222;50.872;4.312;2023-04-03T00:05:05;11.57;;;7.25;;
22111;SDS011;11222;50.872;4.312;2023-04-03T00:07:32;10.32;;;7.05;;
22111;SDS011;11222;50.872;4.312;2023-04-03T00:09:57;11.07;;;6.82;;
22111;SDS011;11222;50.872;4.312;2023-04-03T00:12:23;10.82;;;7.22;;
22111;SDS011;11222;50.872;4.312;2023-04-03T00:14:49;11.70;;;7.30;;
22111;SDS011;11222;50.872;4.312;2023-04-03T00:17:14;10.55;;;7.45;;
22111;SDS011;11222;50.872;4.312;2023-04-03T00:19:40;12.77;;;7.25;;
22111;SDS011;11222;50.872;4.312;2023-04-03T00:22:06;9.45;;;7.28;;
22111;SDS011;11222;50.872;4.312;2023-04-03T00:24:31;10.43;;;7.05;;
22111;SDS011;11222;50.872;4.312;2023-04-03T00:26:57;12.35;;;7.57;;
22111;SDS011;11222;50.872;4.312;2023-04-03T00:29:23;11.07;;;7.28;;
22111;SDS011;11222;50.872;4.312;2023-04-03T00:31:49;9.95;;;6.90;;
22111;SDS011;11222;50.872;4.312;2023-04-03T00:34:14;10.25;;;7.38;;
22111;SDS011;11222;50.872;4.312;2023-04-03T00:36:40;10.20;;;6.80;;
22111;SDS011;11222;50.872;4.312;2023-04-03T00:39:06;9.85;;;7.45;;
22111;SDS011;11222;50.872;4.312;2023-04-03T00:41:31;8.95;;;7.20;;
22111;SDS011;11222;50.872;4.312;2023-04-03T00:43:57;10.68;;;7.32;;
22111;SDS011;11222;50.872;4.312;2023-04-03T00:46:23;8.80;;;7.10;;
22111;SDS011;11222;50.872;4.312;2023-04-03T00:48:49;14.13;;;7.32;;
22111;SDS011;11222;50.872;4.312;2023-04-03T00:51:22;10.35;;;6.97;;
22111;SDS011;11222;50.872;4.312;2023-04-03T00:53:59;8.57;;;6.65;;
22111;SDS011;11222;50.872;4.312;2023-04-03T00:56:27;11.70;;;7.10;;
22111;SDS011;11222;50.872;4.312;2023-04-03T00:58:59;9.63;;;6.88;;
22111;SDS011;11222;50.872;4.312;2023-04-03T01:01:29;11.93;;;7.13;;
22111;SDS011;11222;50.872;4.312;2023-04-03T01:03:55;7.82;;;6.50;;
22111;SDS011;11222;50.872;4.312;2023-04-03T01:06:24;13.05;;;7.45;;
22111;SDS011;11222;50.872;4.312;2023-04-03T01:08:52;14.35;;;7.03;;
22111;SDS011;11222;50.872;4.312;2023-04-03T01:11:20;9.32;;;7.22;;
22111;SDS011;11222;50.872;4.312;2023-04-03T01:13:46;10.65;;;7.30;;
22111;SDS011;11222;50.872;4.312;2023-04-03T01:16:14;9.70;;;6.95;;
22111;SDS011;11222;50.872;4.312;2023-04-03T01:18:40;9.18;;;7.00;;
22111;SDS011;11222;50.872;4.312;2023-04-03T01:26:17;9.45;;;6.80;;
22111;SDS011;11222;50.872;4.312;2023-04-03T01:28:43;10.23;;;6.78;;
22111;SDS011;11222;50.872;4.312;2023-04-03T01:33:47;12.60;;;7.13;;
22111;SDS011;11222;50.872;4.312;2023-04-03T01:36:14;10.02;;;6.90;;
22111;SDS011;11222;50.872;4.312;2023-04-03T01:38:42;8.40;;;6.97;;
22111;SDS011;11222;50.872;4.312;2023-04-03T01:41:08;8.10;;;6.65;;
22111;SDS011;11222;50.872;4.312;2023-04-03T01:43:33;11.52;;;7.70;;
22111;SDS011;11222;50.872;4.312;2023-04-03T01:45:59;11.60;;;7.50;;
22111;SDS011;11222;50.872;4.312;2023-04-03T01:48:25;9.38;;;6.80;;
22111;SDS011;11222;50.872;4.312;2023-04-03T01:50:50;12.18;;;8.77;;
22111;SDS011;11222;50.872;4.312;2023-04-03T01:53:16;11.07;;;7.65;;
22111;SDS011;11222;50.872;4.312;2023-04-03T01:55:42;11.55;;;7.70;;
22111;SDS011;11222;50.872;4.312;2023-04-03T01:58:07;11.18;;;7.63;;
22111;SDS011;11222;50.872;4.312;2023-04-03T02:00:33;10.38;;;7.00;;
22111;SDS011;11222;50.872;4.312;2023-04-03T02:02:59;10.48;;;7.78;;
22111;SDS011;11222;50.872;4.312;2023-04-03T02:05:25;8.68;;;7.38;;
22111;SDS011;11222;50.872;4.312;2023-04-03T02:07:51;11.88;;;9.00;;
22111;SDS011;11222;50.872;4.312;2023-04-03T02:10:16;10.48;;;6.63;;
22111;SDS011;11222;50.872;4.312;2023-04-03T02:12:42;10.07;;;8.07;;
22111;SDS011;11222;50.872;4.312;2023-04-03T02:15:08;12.32;;;7.38;;
22111;SDS011;11222;50.872;4.312;2023-04-03T02:17:34;10.70;;;8.43;;
22111;SDS011;11222;50.872;4.312;2023-04-03T02:20:00;9.40;;;7.28;;
22111;SDS011;11222;50.872;4.312;2023-04-03T02:22:28;9.40;;;6.97;;
22111;SDS011;11222;50.872;4.312;2023-04-03T02:24:53;15.05;;;13.45;;
22111;SDS011;11222;50.872;4.312;2023-04-03T02:27:19;11.68;;;8.30;;
22111;SDS011;11222;50.872;4.312;2023-04-03T02:29:45;11.43;;;9.25;;
22111;SDS011;11222;50.872;4.312;2023-04-03T02:32:11;14.10;;;10.75;;
22111;SDS011;11222;50.872;4.312;2023-04-03T02:34:36;15.63;;;11.60;;
22111;SDS011;11222;50.872;4.312;2023-04-03T02:37:02;16.10;;;9.20;;
22111;SDS011;11222;50.872;4.312;2023-04-03T02:39:28;11.15;;;7.85;;
22111;SDS011;11222;50.872;4.312;2023-04-03T02:41:53;11.65;;;10.45;;
22111;SDS011;11222;50.872;4.312;2023-04-03T02:44:19;10.68;;;7.88;;
22111;SDS011;11222;50.872;4.312;2023-04-03T02:46:45;10.05;;;7.65;;
22111;SDS011;11222;50.872;4.312;2023-04-03T02:49:10;12.88;;;10.05;;
22111;SDS011;11222;50.872;4.312;2023-04-03T02:51:36;11.70;;;8.65;;
22111;SDS011;11222;50.872;4.312;2023-04-03T02:54:02;12.27;;;8.18;;
22111;SDS011;11222;50.872;4.312;2023-04-03T02:56:27;11.02;;;6.95;;
22111;SDS011;11222;50.872;4.312;2023-04-03T02:58:53;10.35;;;7.65;;
22111;SDS011;11222;50.872;4.312;2023-04-03T03:01:19;13.48;;;10.02;;
22111;SDS011;11222;50.872;4.312;2023-04-03T03:03:45;12.07;;;8.68;;
22111;SDS011;11222;50.872;4.312;2023-04-03T03:06:11;26.85;;;17.50;;
22111;SDS011;11222;50.872;4.312;2023-04-03T03:08:39;22.67;;;17.10;;
22111;SDS011;11222;50.872;4.312;2023-04-03T03:11:06;13.98;;;10.57;;
22111;SDS011;11222;50.872;4.312;2023-04-03T03:13:32;20.70;;;16.90;;
22111;SDS011;11222;50.872;4.312;2023-04-03T03:15:58;10.45;;;8.45;;
22111;SDS011;11222;50.872;4.312;2023-04-03T03:18:25;16.42;;;12.90;;
22111;SDS011;11222;50.872;4.312;2023-04-03T03:20:55;12.55;;;9.95;;
22111;SDS011;11222;50.872;4.312;2023-04-03T03:23:23;10.75;;;8.05;;
22111;SDS011;11222;50.872;4.312;2023-04-03T03:25:54;28.63;;;21.85;;
22111;SDS011;11222;50.872;4.312;2023-04-03T03:28:21;9.48;;;8.38;;
22111;SDS011;11222;50.872;4.312;2023-04-03T03:30:47;9.75;;;7.40;;
22111;SDS011;11222;50.872;4.312;2023-04-03T03:33:13;14.18;;;12.02;;
22111;SDS011;11222;50.872;4.312;2023-04-03T03:35:39;16.83;;;10.68;;
22111;SDS011;11222;50.872;4.312;2023-04-03T03:38:05;28.23;;;22.33;;
22111;SDS011;11222;50.872;4.312;2023-04-03T03:40:30;15.60;;;12.10;;
22111;SDS011;11222;50.872;4.312;2023-04-03T03:42:56;16.65;;;14.00;;
22111;SDS011;11222;50.872;4.312;2023-04-03T03:45:22;16.73;;;12.65;;
22111;SDS011;11222;50.872;4.312;2023-04-03T03:47:48;16.98;;;14.60;;
22111;SDS011;11222;50.872;4.312;2023-04-03T03:50:13;16.23;;;13.98;;
22111;SDS011;11222;50.872;4.312;2023-04-03T03:52:39;20.17;;;15.20;;
22111;SDS011;11222;50.872;4.312;2023-04-03T03:55:05;17.30;;;15.05;;
22111;SDS011;11222;50.872;4.312;2023-04-03T03:57:31;14.52;;;12.57;;
22111;SDS011;11222;50.872;4.312;2023-04-03T03:59:57;18.40;;;13.15;;
22111;SDS011;11222;50.872;4.312;2023-04-03T04:02:22;18.60;;;12.15;;
22111;SDS011;11222;50.872;4.312;2023-04-03T04:04:48;14.95;;;11.45;;
22111;SDS011;11222;50.872;4.312;2023-04-03T04:07:14;15.38;;;10.75;;
22111;SDS011;11222;50.872;4.312;2023-04-03T04:09:40;12.25;;;8.43;;
22111;SDS011;11222;50.872;4.312;2023-04-03T04:12:05;10.70;;;8.68;;
22111;SDS011;11222;50.872;4.312;2023-04-03T04:14:31;12.60;;;8.93;;
22111;SDS011;11222;50.872;4.312;2023-04-03T04:16:57;13.57;;;9.18;;
22111;SDS011;11222;50.872;4.312;2023-04-03T04:19:22;10.85;;;8.43;;
22111;SDS011;11222;50.872;4.312;2023-04-03T04:21:48;11.70;;;8.38;;
22111;SDS011;11222;50.872;4.312;2023-04-03T04:24:14;12.20;;;8.65;;
22111;SDS011;11222;50.872;4.312;2023-04-03T04:26:40;13.38;;;9.05;;
22111;SDS011;11222;50.872;4.312;2023-04-03T04:29:06;13.77;;;9.10;;
22111;SDS011;11222;50.872;4.312;2023-04-03T04:31:31;12.68;;;8.52;;
22111;SDS011;11222;50.872;4.312;2023-04-03T04:33:57;15.43;;;9.13;;
22111;SDS011;11222;50.872;4.312;2023-04-03T04:36:22;13.48;;;10.73;;
22111;SDS011;11222;50.872;4.312;2023-04-03T04:38:48;11.90;;;9.50;;
22111;SDS011;11222;50.872;4.312;2023-04-03T04:41:17;12.32;;;9.13;;
22111;SDS011;11222;50.872;4.312;2023-04-03T04:43:47;14.52;;;9.10;;
22111;SDS011;11222;50.872;4.312;2023-04-03T04:46:13;11.82;;;8.68;;
22111;SDS011;11222;50.872;4.312;2023-04-03T04:48:39;11.27;;;8.88;;
22111;SDS011;11222;50.872;4.312;2023-04-03T04:51:05;15.40;;;9.63;;
22111;SDS011;11222;50.872;4.312;2023-04-03T04:53:31;12.85;;;9.20;;
22111;SDS011;11222;50.872;4.312;2023-04-03T04:55:57;13.93;;;9.23;;
22111;SDS011;11222;50.872;4.312;2023-04-03T04:58:23;13.82;;;9.30;;
22111;SDS011;11222;50.872;4.312;2023-04-03T05:00:49;10.90;;;8.98;;
22111;SDS011;11222;50.872;4.312;2023-04-03T05:03:15;12.82;;;9.75;;
22111;SDS011;11222;50.872;4.312;2023-04-03T05:05:41;12.98;;;9.70;;
22111;SDS011;11222;50.872;4.312;2023-04-03T05:08:06;12.52;;;9.75;;
22111;SDS011;11222;50.872;4.312;2023-04-03T05:10:33;14.32;;;10.02;;
22111;SDS011;11222;50.872;4.312;2023-04-03T05:12:59;13.35;;;10.15;;
22111;SDS011;11222;50.872;4.312;2023-04-03T05:15:25;13.73;;;10.50;;
22111;SDS011;11222;50.872;4.312;2023-04-03T05:17:52;13.80;;;9.63;;
22111;SDS011;11222;50.872;4.312;2023-04-03T05:20:18;16.27;;;11.25;;
22111;SDS011;11222;50.872;4.312;2023-04-03T05:22:43;18.60;;;12.25;;
22111;SDS011;11222;50.872;4.312;2023-04-03T05:25:09;14.50;;;11.68;;
22111;SDS011;11222;50.872;4.312;2023-04-03T05:27:35;19.30;;;11.55;;
22111;SDS011;11222;50.872;4.312;2023-04-03T05:30:01;15.10;;;11.18;;
22111;SDS011;11222;50.872;4.312;2023-04-03T05:32:26;15.50;;;10.20;;
22111;SDS011;11222;50.872;4.312;2023-04-03T05:34:52;15.88;;;10.52;;
22111;SDS011;11222;50.872;4.312;2023-04-03T05:37:18;18.40;;;11.00;;
22111;SDS011;11222;50.872;4.312;2023-04-03T05:39:44;15.18;;;10.75;;
22111;SDS011;11222;50.872;4.312;2023-04-03T05:42:10;21.52;;;11.85;;
22111;SDS011;11222;50.872;4.312;2023-04-03T05:44:36;14.07;;;10.63;;
22111;SDS011;11222;50.872;4.312;2023-04-03T05:47:03;17.27;;;11.13;;
22111;SDS011;11222;50.872;4.312;2023-04-03T05:49:28;14.88;;;10.40;;
22111;SDS011;11222;50.872;4.312;2023-04-03T05:51:54;14.93;;;10.85;;
22111;SDS011;11222;50.872;4.312;2023-04-03T05:54:22;17.52;;;11.23;;
22111;SDS011;11222;50.872;4.312;2023-04-03T05:56:52;17.42;;;11.32;;
22111;SDS011;11222;50.872;4.312;2023-04-03T05:59:18;14.00;;;10.60;;
22111;SDS011;11222;50.872;4.312;2023-04-03T06:01:46;21.60;;;11.00;;
22111;SDS011;11222;50.872;4.312;2023-04-03T06:04:12;15.32;;;10.70;;
22111;SDS011;11222;50.872;4.312;2023-04-03T06:09:12;13.75;;;10.25;;
22111;SDS011;11222;50.872;4.312;2023-04-03T06:11:38;14.65;;;10.27;;
22111;SDS011;11222;50.872;4.312;2023-04-03T06:14:04;17.40;;;12.00;;
22111;SDS011;11222;50.872;4.312;2023-04-03T06:16:30;14.70;;;10.60;;
22111;SDS011;11222;50.872;4.312;2023-04-03T06:18:55;16.85;;;11.07;;
22111;SDS011;11222;50.872;4.312;2023-04-03T06:21:22;16.20;;;10.70;;
22111;SDS011;11222;50.872;4.312;2023-04-03T06:23:47;14.05;;;10.05;;
22111;SDS011;11222;50.872;4.312;2023-04-03T06:26:13;15.77;;;10.50;;
22111;SDS011;11222;50.872;4.312;2023-04-03T06:28:39;16.65;;;10.43;;
22111;SDS011;11222;50.872;4.312;2023-04-03T06:31:04;21.13;;;11.57;;
22111;SDS011;11222;50.872;4.312;2023-04-03T06:33:30;15.63;;;11.10;;
22111;SDS011;11222;50.872;4.312;2023-04-03T06:35:59;15.38;;;11.20;;
22111;SDS011;11222;50.872;4.312;2023-04-03T06:38:24;14.32;;;11.35;;
22111;SDS011;11222;50.872;4.312;2023-04-03T06:40:50;16.17;;;11.07;;
22111;SDS011;11222;50.872;4.312;2023-04-03T06:43:17;15.18;;;11.30;;
22111;SDS011;11222;50.872;4.312;2023-04-03T06:45:42;17.35;;;11.77;;
22111;SDS011;11222;50.872;4.312;2023-04-03T06:48:08;14.30;;;11.05;;
22111;SDS011;11222;50.872;4.312;2023-04-03T06:50:34;15.07;;;11.00;;
22111;SDS011;11222;50.872;4.312;2023-04-03T06:53:00;17.58;;;11.75;;
22111;SDS011;11222;50.872;4.312;2023-04-03T06:55:26;17.75;;;11.07;;
22111;SDS011;11222;50.872;4.312;2023-04-03T06:57:52;14.25;;;11.13;;
22111;SDS011;11222;50.872;4.312;2023-04-03T07:00:17;15.10;;;10.90;;
22111;SDS011;11222;50.872;4.312;2023-04-03T07:02:44;15.27;;;10.75;;
22111;SDS011;11222;50.872;4.312;2023-04-03T07:05:10;14.80;;;10.93;;
22111;SDS011;11222;50.872;4.312;2023-04-03T07:07:36;16.67;;;10.95;;
22111;SDS011;11222;50.872;4.312;2023-04-03T07:10:03;19.08;;;10.75;;
22111;SDS011;11222;50.872;4.312;2023-04-03T07:12:29;13.82;;;10.93;;
22111;SDS011;11222;50.872;4.312;2023-04-03T07:14:55;17.35;;;11.05;;
22111;SDS011;11222;50.872;4.312;2023-04-03T07:17:21;17.40;;;11.13;;
22111;SDS011;11222;50.872;4.312;2023-04-03T07:19:46;14.20;;;11.60;;
22111;SDS011;11222;50.872;4.312;2023-04-03T07:22:12;16.30;;;10.82;;
22111;SDS011;11222;50.872;4.312;2023-04-03T07:24:38;15.18;;;10.43;;
22111;SDS011;11222;50.872;4.312;2023-04-03T07:27:04;18.05;;;10.30;;
22111;SDS011;11222;50.872;4.312;2023-04-03T07:29:30;15.45;;;10.60;;
22111;SDS011;11222;50.872;4.312;2023-04-03T07:31:56;15.52;;;9.82;;
22111;SDS011;11222;50.872;4.312;2023-04-03T07:34:22;12.75;;;9.98;;
22111;SDS011;11222;50.872;4.312;2023-04-03T07:36:48;15.30;;;9.85;;
22111;SDS011;11222;50.872;4.312;2023-04-03T07:39:13;14.05;;;9.95;;
22111;SDS011;11222;50.872;4.312;2023-04-03T07:41:39;15.77;;;10.32;;
22111;SDS011;11222;50.872;4.312;2023-04-03T07:44:05;18.02;;;10.10;;
22111;SDS011;11222;50.872;4.312;2023-04-03T07:46:31;16.13;;;10.00;;
22111;SDS011;11222;50.872;4.312;2023-04-03T07:48:56;13.20;;;10.10;;
22111;SDS011;11222;50.872;4.312;2023-04-03T07:51:22;17.13;;;10.20;;
22111;SDS011;11222;50.872;4.312;2023-04-03T07:53:49;15.70;;;10.15;;
22111;SDS011;11222;50.872;4.312;2023-04-03T07:56:16;13.88;;;9.82;;
22111;SDS011;11222;50.872;4.312;2023-04-03T07:58:42;15.38;;;10.05;;
22111;SDS011;11222;50.872;4.312;2023-04-03T08:01:07;14.02;;;10.18;;
22111;SDS011;11222;50.872;4.312;2023-04-03T08:03:33;15.48;;;9.68;;
22111;SDS011;11222;50.872;4.312;2023-04-03T08:06:04;13.60;;;9.43;;
22111;SDS011;11222;50.872;4.312;2023-04-03T08:08:32;12.90;;;9.35;;
22111;SDS011;11222;50.872;4.312;2023-04-03T08:10:59;14.25;;;9.55;;
22111;SDS011;11222;50.872;4.312;2023-04-03T08:13:25;13.70;;;9.30;;
22111;SDS011;11222;50.872;4.312;2023-04-03T08:15:51;13.18;;;9.50;;
22111;SDS011;11222;50.872;4.312;2023-04-03T08:18:17;14.30;;;9.52;;
22111;SDS011;11222;50.872;4.312;2023-04-03T08:20:46;13.82;;;9.18;;
22111;SDS011;11222;50.872;4.312;2023-04-03T08:23:12;13.43;;;9.27;;
22111;SDS011;11222;50.872;4.312;2023-04-03T08:25:40;16.70;;;8.82;;
22111;SDS011;11222;50.872;4.312;2023-04-03T08:28:07;12.50;;;8.77;;
22111;SDS011;11222;50.872;4.312;2023-04-03T08:30:33;12.38;;;8.35;;
22111;SDS011;11222;50.872;4.312;2023-04-03T08:33:02;16.63;;;8.80;;
22111;SDS011;11222;50.872;4.312;2023-04-03T08:35:29;12.23;;;8.75;;
22111;SDS011;11222;50.872;4.312;2023-04-03T08:37:55;14.00;;;8.70;;
22111;SDS011;11222;50.872;4.312;2023-04-03T08:40:21;11.98;;;8.23;;
22111;SDS011;11222;50.872;4.312;2023-04-03T08:46:01;12.65;;;7.80;;
22111;SDS011;11222;50.872;4.312;2023-04-03T08:48:31;9.82;;;7.28;;
22111;SDS011;11222;50.872;4.312;2023-04-03T08:51:04;10.68;;;6.38;;
22111;SDS011;11222;50.872;4.312;2023-04-03T08:53:45;13.45;;;8.00;;
22111;SDS011;11222;50.872;4.312;2023-04-03T08:56:20;14.35;;;7.75;;
22111;SDS011;11222;50.872;4.312;2023-04-03T08:58:49;10.90;;;7.30;;
22111;SDS011;11222;50.872;4.312;2023-04-03T09:01:33;9.65;;;6.18;;
22111;SDS011;11222;50.872;4.312;2023-04-03T09:04:01;9.38;;;6.95;;
22111;SDS011;11222;50.872;4.312;2023-04-03T09:06:29;13.45;;;6.57;;
22111;SDS011;11222;50.872;4.312;2023-04-03T09:09:15;10.75;;;6.43;;
22111;SDS011;11222;50.872;4.312;2023-04-03T09:12:17;7.05;;;5.35;;
22111;SDS011;11222;50.872;4.312;2023-04-03T09:25:42;6.10;;;4.65;;
22111;SDS011;11222;50.872;4.312;2023-04-03T09:28:08;7.28;;;4.88;;
22111;SDS011;11222;50.872;4.312;2023-04-03T09:30:35;7.22;;;4.47;;
22111;SDS011;11222;50.872;4.312;2023-04-03T09:33:01;8.80;;;5.18;;
22111;SDS011;11222;50.872;4.312;2023-04-03T09:43:29;6.45;;;4.80;;
22111;SDS011;11222;50.872;4.312;2023-04-03T09:48:57;6.20;;;3.75;;
22111;SDS011;11222;50.872;4.312;2023-04-03T09:51:26;8.38;;;4.07;;
22111;SDS011;11222;50.872;4.312;2023-04-03T09:53:53;5.43;;;3.92;;
22111;SDS011;11222;50.872;4.312;2023-04-03T09:56:23;7.70;;;4.30;;
22111;SDS011;11222;50.872;4.312;2023-04-03T09:58:52;5.97;;;4.22;;
22111;SDS011;11222;50.872;4.312;2023-04-03T10:01:34;5.07;;;3.70;;
22111;SDS011;11222;50.872;4.312;2023-04-03T10:06:51;5.40;;;3.92;;
22111;SDS011;11222;50.872;4.312;2023-04-03T10:11:59;4.72;;;3.72;;
22111;SDS011;11222;50.872;4.312;2023-04-03T10:14:29;6.10;;;4.00;;
22111;SDS011;11222;50.872;4.312;2023-04-03T10:16:59;8.55;;;4.30;;
22111;SDS011;11222;50.872;4.312;2023-04-03T10:19:41;3.70;;;3.40;;
22111;SDS011;11222;50.872;4.312;2023-04-03T10:27:48;6.00;;;4.28;;
22111;SDS011;11222;50.872;4.312;2023-04-03T10:33:23;6.07;;;3.75;;
22111;SDS011;11222;50.872;4.312;2023-04-03T10:41:42;6.35;;;3.67;;
22111;SDS011;11222;50.872;4.312;2023-04-03T10:49:23;3.72;;;3.35;;
22111;SDS011;11222;50.872;4.312;2023-04-03T10:54:25;8.57;;;3.90;;
22111;SDS011;11222;50.872;4.312;2023-04-03T10:57:03;9.85;;;4.10;;
22111;SDS011;11222;50.872;4.312;2023-04-03T11:05:04;5.60;;;3.65;;
22111;SDS011;11222;50.872;4.312;2023-04-03T11:07:39;8.52;;;3.85;;
22111;SDS011;11222;50.872;4.312;2023-04-03T11:10:13;8.07;;;3.70;;
22111;SDS011;11222;50.872;4.312;2023-04-03T11:15:12;6.53;;;3.78;;
22111;SDS011;11222;50.872;4.312;2023-04-03T11:17:42;4.05;;;3.33;;
22111;SDS011;11222;50.872;4.312;2023-04-03T11:20:30;7.50;;;3.47;;
22111;SDS011;11222;50.872;4.312;2023-04-03T11:25:34;6.88;;;4.05;;
22111;SDS011;11222;50.872;4.312;2023-04-03T11:28:06;4.57;;;4.05;;
22111;SDS011;11222;50.872;4.312;2023-04-03T11:30:48;5.35;;;3.70;;
22111;SDS011;11222;50.872;4.312;2023-04-03T11:36:05;3.95;;;3.42;;
22111;SDS011;11222;50.872;4.312;2023-04-03T11:38:35;6.25;;;3.28;;
22111;SDS011;11222;50.872;4.312;2023-04-03T11:41:06;5.03;;;3.58;;
22111;SDS011;11222;50.872;4.312;2023-04-03T11:43:33;6.72;;;3.45;;
22111;SDS011;11222;50.872;4.312;2023-04-03T11:46:21;5.90;;;3.50;;
22111;SDS011;11222;50.872;4.312;2023-04-03T11:48:48;5.63;;;3.40;;
22111;SDS011;11222;50.872;4.312;2023-04-03T11:53:41;7.22;;;3.95;;
22111;SDS011;11222;50.872;4.312;2023-04-03T12:04:14;5.03;;;3.53;;
22111;SDS011;11222;50.872;4.312;2023-04-03T12:11:55;6.03;;;3.92;;
22111;SDS011;11222;50.872;4.312;2023-04-03T12:14:22;7.65;;;3.83;;
22111;SDS011;11222;50.872;4.312;2023-04-03T12:16:50;5.28;;;3.97;;
22111;SDS011;11222;50.872;4.312;2023-04-03T12:19:30;6.30;;;3.63;;
22111;SDS011;11222;50.872;4.312;2023-04-03T12:22:14;5.03;;;3.70;;
22111;SDS011;11222;50.872;4.312;2023-04-03T12:24:43;6.55;;;3.50;;
22111;SDS011;11222;50.872;4.312;2023-04-03T12:30:07;5.47;;;2.92;;
22111;SDS011;11222;50.872;4.312;2023-04-03T12:46:49;4.40;;;2.95;;
22111;SDS011;11222;50.872;4.312;2023-04-03T12:51:51;6.35;;;3.00;;
22111;SDS011;11222;50.872;4.312;2023-04-03T12:54:31;5.38;;;2.72;;
22111;SDS011;11222;50.872;4.312;2023-04-03T12:57:08;5.22;;;2.88;;
22111;SDS011;11222;50.872;4.312;2023-04-03T12:59:35;4.28;;;2.83;;
22111;SDS011;11222;50.872;4.312;2023-04-03T13:02:01;5.43;;;3.35;;
22111;SDS011;11222;50.872;4.312;2023-04-03T13:04:28;4.78;;;2.75;;
22111;SDS011;11222;50.872;4.312;2023-04-03T13:06:56;3.67;;;2.60;;
22111;SDS011;11222;50.872;4.312;2023-04-03T13:12:14;4.38;;;2.92;;
22111;SDS011;11222;50.872;4.312;2023-04-03T13:14:50;4.25;;;2.90;;
22111;SDS011;11222;50.872;4.312;2023-04-03T13:17:18;3.10;;;2.50;;
22111;SDS011;11222;50.872;4.312;2023-04-03T13:19:44;3.97;;;2.80;;
22111;SDS011;11222;50.872;4.312;2023-04-03T13:24:54;3.38;;;2.60;;
22111;SDS011;11222;50.872;4.312;2023-04-03T13:27:21;3.55;;;2.58;;
22111;SDS011;11222;50.872;4.312;2023-04-03T13:29:51;4.57;;;2.88;;
22111;SDS011;11222;50.872;4.312;2023-04-03T13:32:20;3.10;;;2.80;;
22111;SDS011;11222;50.872;4.312;2023-04-03T13:34:49;3.72;;;2.78;;
22111;SDS011;11222;50.872;4.312;2023-04-03T13:42:33;4.97;;;2.75;;
22111;SDS011;11222;50.872;4.312;2023-04-03T13:47:53;5.00;;;2.60;;
22111;SDS011;11222;50.872;4.312;2023-04-03T13:50:33;4.10;;;2.80;;
22111;SDS011;11222;50.872;4.312;2023-04-03T13:53:26;5.50;;;3.10;;
22111;SDS011;11222;50.872;4.312;2023-04-03T13:58:29;3.17;;;2.88;;
22111;SDS011;11222;50.872;4.312;2023-04-03T14:01:08;3.33;;;3.00;;
22111;SDS011;11222;50.872;4.312;2023-04-03T14:03:45;5.35;;;3.10;;
22111;SDS011;11222;50.872;4.312;2023-04-03T14:06:17;5.57;;;3.10;;
22111;SDS011;11222;50.872;4.312;2023-04-03T14:08:43;5.60;;;3.00;;
22111;SDS011;11222;50.872;4.312;2023-04-03T14:11:21;3.35;;;2.72;;
22111;SDS011;11222;50.872;4.312;2023-04-03T14:13:49;4.88;;;3.10;;
22111;SDS011;11222;50.872;4.312;2023-04-03T14:16:19;5.43;;;3.00;;
22111;SDS011;11222;50.872;4.312;2023-04-03T14:18:48;5.10;;;3.17;;
22111;SDS011;11222;50.872;4.312;2023-04-03T14:21:15;4.10;;;2.83;;
22111;SDS011;11222;50.872;4.312;2023-04-03T14:23:43;3.67;;;2.60;;
22111;SDS011;11222;50.872;4.312;2023-04-03T14:26:12;4.32;;;2.83;;
22111;SDS011;11222;50.872;4.312;2023-04-03T14:28:41;4.50;;;3.00;;
22111;SDS011;11222;50.872;4.312;2023-04-03T14:31:09;4.53;;;2.95;;
22111;SDS011;11222;50.872;4.312;2023-04-03T14:33:36;4.82;;;3.03;;
22111;SDS011;11222;50.872;4.312;2023-04-03T14:36:05;2.90;;;2.70;;
22111;SDS011;11222;50.872;4.312;2023-04-03T14:38:40;3.35;;;2.88;;
22111;SDS011;11222;50.872;4.312;2023-04-03T14:41:07;10.88;;;3.88;;
22111;SDS011;11222;50.872;4.312;2023-04-03T14:43:33;10.75;;;3.33;;
22111;SDS011;11222;50.872;4.312;2023-04-03T14:45:59;3.63;;;3.05;;
22111;SDS011;11222;50.872;4.312;2023-04-03T14:48:25;6.30;;;2.90;;
22111;SDS011;11222;50.872;4.312;2023-04-03T14:50:52;5.28;;;2.78;;
22111;SDS011;11222;50.872;4.312;2023-04-03T14:53:18;3.90;;;2.40;;
22111;SDS011;11222;50.872;4.312;2023-04-03T14:55:47;4.40;;;2.72;;
22111;SDS011;11222;50.872;4.312;2023-04-03T14:58:14;7.15;;;2.85;;
22111;SDS011;11222;50.872;4.312;2023-04-03T15:00:41;3.50;;;2.75;;
22111;SDS011;11222;50.872;4.312;2023-04-03T15:03:15;5.85;;;3.10;;
22111;SDS011;11222;50.872;4.312;2023-04-03T15:08:19;3.45;;;2.90;;
22111;SDS011;11222;50.872;4.312;2023-04-03T15:10:49;4.05;;;2.75;;
22111;SDS011;11222;50.872;4.312;2023-04-03T15:13:17;3.30;;;2.90;;
22111;SDS011;11222;50.872;4.312;2023-04-03T15:15:44;2.83;;;2.53;;
22111;SDS011;11222;50.872;4.312;2023-04-03T15:18:15;5.30;;;2.70;;
22111;SDS011;11222;50.872;4.312;2023-04-03T15:20:44;4.40;;;3.15;;
22111;SDS011;11222;50.872;4.312;2023-04-03T15:23:13;2.97;;;2.60;;
22111;SDS011;11222;50.872;4.312;2023-04-03T15:25:41;7.20;;;2.70;;
22111;SDS011;11222;50.872;4.312;2023-04-03T15:28:08;2.90;;;2.30;;
22111;SDS011;11222;50.872;4.312;2023-04-03T15:30:48;4.53;;;2.65;;
22111;SDS011;11222;50.872;4.312;2023-04-03T15:33:15;4.25;;;2.90;;
22111;SDS011;11222;50.872;4.312;2023-04-03T15:35:41;3.97;;;2.80;;
22111;SDS011;11222;50.872;4.312;2023-04-03T15:38:07;3.63;;;2.55;;
22111;SDS011;11222;50.872;4.312;2023-04-03T15:40:33;6.68;;;3.00;;
22111;SDS011;11222;50.872;4.312;2023-04-03T15:42:59;5.35;;;2.80;;
22111;SDS011;11222;50.872;4.312;2023-04-03T15:45:24;2.97;;;2.40;;
22111;SDS011;11222;50.872;4.312;2023-04-03T15:47:53;3.90;;;2.60;;
22111;SDS011;11222;50.872;4.312;2023-04-03T15:50:19;4.53;;;2.67;;
22111;SDS011;11222;50.872;4.312;2023-04-03T15:52:47;4.32;;;2.53;;
22111;SDS011;11222;50.872;4.312;2023-04-03T15:55:13;4.88;;;2.80;;
22111;SDS011;11222;50.872;4.312;2023-04-03T15:57:39;3.15;;;2.38;;
22111;SDS011;11222;50.872;4.312;2023-04-03T16:00:05;4.55;;;3.45;;
22111;SDS011;11222;50.872;4.312;2023-04-03T16:02:31;3.95;;;2.60;;
22111;SDS011;11222;50.872;4.312;2023-04-03T16:04:58;5.57;;;2.72;;
22111;SDS011;11222;50.872;4.312;2023-04-03T16:07:24;4.32;;;2.70;;
22111;SDS011;11222;50.872;4.312;2023-04-03T16:09:50;2.40;;;2.20;;
22111;SDS011;11222;50.872;4.312;2023-04-03T16:12:15;3.92;;;2.88;;
22111;SDS011;11222;50.872;4.312;2023-04-03T16:14:41;2.92;;;2.22;;
22111;SDS011;11222;50.872;4.312;2023-04-03T16:17:07;4.13;;;2.72;;
22111;SDS011;11222;50.872;4.312;2023-04-03T16:19:32;4.50;;;2.85;;
22111;SDS011;11222;50.872;4.312;2023-04-03T16:21:58;3.38;;;2.60;;
22111;SDS011;11222;50.872;4.312;2023-04-03T16:24:24;3.33;;;2.65;;
22111;SDS011;11222;50.872;4.312;2023-04-03T16:26:50;3.85;;;2.58;;
22111;SDS011;11222;50.872;4.312;2023-04-03T16:29:18;3.42;;;2.50;;
22111;SDS011;11222;50.872;4.312;2023-04-03T16:31:43;4.63;;;3.03;;
22111;SDS011;11222;50.872;4.312;2023-04-03T16:34:09;3.20;;;2.78;;
22111;SDS011;11222;50.872;4.312;2023-04-03T16:36:36;3.05;;;2.72;;
22111;SDS011;11222;50.872;4.312;2023-04-03T16:39:02;4.15;;;3.00;;
22111;SDS011;11222;50.872;4.312;2023-04-03T16:41:29;4.72;;;3.00;;
22111;SDS011;11222;50.872;4.312;2023-04-03T16:43:54;4.43;;;3.33;;
22111;SDS011;11222;50.872;4.312;2023-04-03T16:46:20;4.28;;;2.90;;
22111;SDS011;11222;50.872;4.312;2023-04-03T16:48:46;5.78;;;3.38;;